Beatrice, Alabama
Current Conditions -  °F | °C
As of 3:53 AM on Wednesday 26 Nov 2014 (Local Time) from KGZH Reporting Station
Clear Clear  
Wind Chill: 41°   Ceiling: Unl
Heat Index: 41°   Visibility: 10mi
Dew Point: 30°   Wind: 0mph
Humidity: 65%   Direction: NA
Pressure: 30.14"   Gusts: NA
Location:  31.73°N, 87.2°W
Report Text: KGZH 260953Z AUTO 00000KT 10SM CLR 05/M01 A3014 RMK AO2 SLP205 T00501011
Loading
Personal Weather Stations






























Interactive Weather Map New forecast layout! Learn more

10-Day Weather Forecast

Advertisements
Track Severe Weather on mobile